TimeCDT,TemperatureF,Dew PointF,Humidity,Sea Level PressureIn,VisibilityMPH,Wind Direction,Wind SpeedMPH,Gust SpeedMPH,PrecipitationIn,Events,Conditions,WindDirDegrees,DateUTC
12:56 AM,50.0,46.9,89,29.82,-9999.0,ESE,3.5,-,N/A,,Unknown,110,2012-10-23 05:56:00
1:56 AM,50.0,46.9,89,29.79,-9999.0,SE,4.6,-,N/A,,Unknown,130,2012-10-23 06:56:00
2:56 AM,50.0,48.0,93,29.77,-9999.0,SSE,6.9,-,N/A,,Unknown,150,2012-10-23 07:56:00
3:56 AM,50.0,48.9,96,29.75,-9999.0,SE,5.8,-,N/A,,Unknown,140,2012-10-23 08:56:00
4:56 AM,48.9,48.9,100,29.74,-9999.0,SE,6.9,-,N/A,,Unknown,140,2012-10-23 09:56:00
5:56 AM,48.9,48.9,100,29.73,-9999.0,SSE,6.9,-,N/A,,Unknown,160,2012-10-23 10:56:00
6:56 AM,50.0,50.0,100,29.72,-9999.0,SSE,6.9,-,N/A,,Unknown,160,2012-10-23 11:56:00
7:56 AM,50.0,50.0,100,29.70,-9999.0,SSE,9.2,-,N/A,,Unknown,160,2012-10-23 12:56:00
8:56 AM,50.0,50.0,100,29.71,-9999.0,SSE,3.5,-,N/A,,Unknown,150,2012-10-23 13:56:00
9:56 AM,50.0,50.0,100,29.71,-9999.0,SSE,5.8,-,N/A,,Unknown,150,2012-10-23 14:56:00
10:56 AM,51.1,51.1,100,29.68,-9999.0,SSE,9.2,-,N/A,,Unknown,160,2012-10-23 15:56:00
11:56 AM,51.1,51.1,100,29.68,-9999.0,South,9.2,-,N/A,,Unknown,170,2012-10-23 16:56:00
12:56 PM,52.0,52.0,100,29.67,-9999.0,South,6.9,-,N/A,,Unknown,170,2012-10-23 17:56:00
1:56 PM,54.0,53.1,97,29.65,-9999.0,South,5.8,-,N/A,,Unknown,170,2012-10-23 18:56:00
2:56 PM,55.9,55.0,97,29.62,-9999.0,SE,4.6,-,N/A,,Unknown,130,2012-10-23 19:56:00
3:56 PM,57.0,55.0,93,29.64,-9999.0,SSE,3.5,-,N/A,,Unknown,160,2012-10-23 20:56:00
4:56 PM,57.0,55.0,93,29.64,-9999.0,SSE,5.8,-,N/A,,Unknown,160,2012-10-23 21:56:00
5:56 PM,57.0,55.0,93,29.65,-9999.0,SSE,6.9,-,N/A,,Unknown,150,2012-10-23 22:56:00
6:56 PM,57.0,55.9,96,29.68,-9999.0,Calm,Calm,-,N/A,,Unknown,0,2012-10-23 23:56:00
7:56 PM,59.0,55.0,87,29.70,-9999.0,WNW,4.6,-,N/A,,Unknown,290,2012-10-24 00:56:00
8:56 PM,57.0,53.1,87,29.72,-9999.0,NW,8.1,-,N/A,,Unknown,310,2012-10-24 01:56:00
9:56 PM,54.0,52.0,93,29.75,-9999.0,NW,11.5,-,N/A,,Unknown,320,2012-10-24 02:56:00
10:56 PM,54.0,50.0,86,29.78,-9999.0,NW,8.1,-,N/A,,Unknown,320,2012-10-24 03:56:00
11:56 PM,50.0,46.0,86,29.82,-9999.0,NNW,16.1,-,N/A,,Unknown,330,2012-10-24 04:56:00